Time;durP1;ratioP1;P1;durP2;ratioP2;P2;SDS_P1;SDS_P2;PMS_P1;PMS_P2;Temp;Humidity;BMP_temperature;BMP_pressure;BME280_temperature;BME280_humidity;BME280_pressure;Samples;Min_cycle;Max_cycle;Signal;HPM_P1;HPM_P2
2022/03/27 00:01:22;;;;;;;3.85;1.73;;;7.30;99.90;;;;;;4242108;27;20047;-84
2022/03/27 00:03:22;;;;;;;4.40;1.58;;;7.90;99.90;;;;;;4221335;28;20051;-87
2022/03/27 00:05:23;;;;;;;2.65;1.27;;;7.60;99.90;;;;;;4238096;27;20062;-87
2022/03/27 00:07:25;;;;;;;5.40;1.85;;;7.30;99.90;;;;;;4241500;27;20050;-87
2022/03/27 00:09:25;;;;;;;2.58;1.50;;;7.80;99.90;;;;;;4245568;27;20472;-86
2022/03/27 00:11:28;;;;;;;4.47;1.23;;;7.50;99.90;;;;;;4238343;27;20105;-88
2022/03/27 00:13:29;;;;;;;4.25;1.58;;;7.50;99.90;;;;;;4236442;27;20043;-88
2022/03/27 00:15:30;;;;;;;5.80;1.63;;;8.00;99.90;;;;;;4240824;27;20457;-87
2022/03/27 00:17:34;;;;;;;4.53;1.40;;;7.40;99.90;;;;;;4225105;28;20090;-87
2022/03/27 00:19:34;;;;;;;4.43;1.60;;;7.60;99.90;;;;;;4237678;27;20071;-87
2022/03/27 00:21:35;;;;;;;5.13;1.58;;;7.40;99.90;;;;;;4222384;28;20055;-87
2022/03/27 00:23:37;;;;;;;5.78;1.75;;;7.60;99.90;;;;;;4243811;27;20600;-87
2022/03/27 00:25:38;;;;;;;4.13;1.63;;;8.10;99.90;;;;;;4240142;27;20055;-87
2022/03/27 00:27:39;;;;;;;5.20;1.50;;;8.00;99.90;;;;;;4231512;27;20564;-87
2022/03/27 00:29:39;;;;;;;3.53;1.98;;;7.80;99.90;;;;;;4218539;28;20047;-87
2022/03/27 00:31:40;;;;;;;6.10;1.33;;;7.50;99.90;;;;;;4222866;28;20484;-87
2022/03/27 00:33:42;;;;;;;8.15;2.70;;;7.50;99.90;;;;;;4223774;28;20051;-86
2022/03/27 00:35:42;;;;;;;5.22;1.90;;;7.50;99.90;;;;;;4225965;28;20036;-87
2022/03/27 00:37:44;;;;;;;4.88;1.67;;;7.90;99.90;;;;;;4231477;27;20050;-87
2022/03/27 00:39:45;;;;;;;3.20;1.70;;;7.70;99.90;;;;;;4239634;27;20119;-87
2022/03/27 00:41:46;;;;;;;4.30;2.28;;;7.60;99.90;;;;;;4228695;28;20055;-86
2022/03/27 00:43:46;;;;;;;7.13;1.77;;;7.60;99.90;;;;;;4240530;27;20043;-87
2022/03/27 00:45:49;;;;;;;3.78;1.75;;;8.50;99.90;;;;;;4233789;27;20530;-87
2022/03/27 00:47:49;;;;;;;6.05;1.70;;;8.20;99.90;;;;;;4224773;28;20042;-87
2022/03/27 00:49:50;;;;;;;8.38;2.22;;;7.60;99.90;;;;;;4241327;27;20118;-87
2022/03/27 00:51:52;;;;;;;8.07;2.50;;;8.20;99.90;;;;;;4239736;27;20050;-87
2022/03/27 00:53:54;;;;;;;4.03;1.80;;;7.70;99.90;;;;;;4235389;27;20039;-87
2022/03/27 00:55:55;;;;;;;5.63;1.90;;;6.90;99.90;;;;;;4217575;28;20101;-86
2022/03/27 00:57:56;;;;;;;8.05;2.75;;;7.80;99.90;;;;;;4234884;27;20528;-87
2022/03/27 00:59:57;;;;;;;7.07;1.67;;;7.70;99.90;;;;;;4238178;27;20041;-87
2022/03/27 01:01:57;;;;;;;5.60;2.10;;;7.60;99.90;;;;;;4225850;28;20047;-87
2022/03/27 01:03:58;;;;;;;6.10;2.47;;;7.60;99.90;;;;;;4239385;27;20515;-87
2022/03/27 01:05:59;;;;;;;7.85;3.10;;;7.50;99.90;;;;;;4234144;27;20051;-87
2022/03/27 01:08:04;;;;;;;3.53;2.10;;;7.40;99.90;;;;;;4235635;27;20860;-87
2022/03/27 01:10:05;;;;;;;7.28;2.97;;;7.40;99.90;;;;;;4237022;27;20470;-88
2022/03/27 01:12:17;;;;;;;9.32;2.70;;;7.40;99.90;;;;;;4240709;27;20039;-87
2022/03/27 01:14:24;;;;;;;6.03;2.67;;;8.10;99.90;;;;;;4241873;27;20054;-87
2022/03/27 01:16:55;;;;;;;5.30;2.47;;;7.40;99.90;;;;;;4234212;27;20050;-87
2022/03/27 01:18:57;;;;;;;4.90;2.00;;;7.30;99.90;;;;;;4244618;27;20442;-86
2022/03/27 01:20:57;;;;;;;6.60;2.15;;;7.20;99.90;;;;;;4240991;27;20086;-87
2022/03/27 01:23:00;;;;;;;5.45;2.10;;;7.20;99.90;;;;;;4237951;27;20055;-87
2022/03/27 01:25:00;;;;;;;5.03;2.42;;;7.20;99.90;;;;;;4242795;27;20524;-87
2022/03/27 01:27:01;;;;;;;3.80;2.17;;;7.10;99.90;;;;;;4230984;28;20082;-88
2022/03/27 01:29:02;;;;;;;6.50;2.25;;;7.00;99.90;;;;;;4242010;27;20437;-88
2022/03/27 01:31:07;;;;;;;5.57;2.22;;;8.10;99.90;;;;;;4245134;27;20055;-87
2022/03/27 01:33:10;;;;;;;6.80;2.03;;;7.50;99.90;;;;;;4241066;27;20043;-87
2022/03/27 01:35:12;;;;;;;6.75;1.92;;;6.90;99.90;;;;;;4230169;28;20423;-87
2022/03/27 01:37:16;;;;;;;6.63;2.20;;;6.90;99.90;;;;;;4241221;27;20553;-87
2022/03/27 01:39:17;;;;;;;6.20;2.20;;;6.80;99.90;;;;;;4225618;28;20739;-86
2022/03/27 01:41:18;;;;;;;9.68;2.60;;;7.30;99.90;;;;;;4235316;27;20396;-86
2022/03/27 01:43:20;;;;;;;7.25;2.10;;;6.80;99.90;;;;;;4224615;28;20083;-87
2022/03/27 01:45:21;;;;;;;7.22;3.47;;;7.10;99.90;;;;;;4246523;27;20092;-87
2022/03/27 01:47:22;;;;;;;5.53;2.25;;;7.10;99.90;;;;;;4247054;27;20083;-87
2022/03/27 01:49:24;;;;;;;8.20;2.25;;;6.10;99.90;;;;;;4242195;28;20113;-88
2022/03/27 01:51:25;;;;;;;6.55;2.15;;;7.30;99.90;;;;;;4243210;28;20372;-88
2022/03/27 01:53:26;;;;;;;5.43;3.00;;;7.10;99.90;;;;;;4229374;28;20133;-89
2022/03/27 01:55:27;;;;;;;6.15;2.25;;;6.70;99.90;;;;;;4227803;28;20050;-87
2022/03/27 01:57:29;;;;;;;8.57;2.70;;;6.60;99.90;;;;;;4234146;27;20082;-87
2022/03/27 01:59:30;;;;;;;8.48;2.78;;;6.50;99.90;;;;;;4237015;27;20039;-88
2022/03/27 02:01:32;;;;;;;8.50;3.08;;;7.30;99.90;;;;;;4239648;27;20090;-87
2022/03/27 02:03:33;;;;;;;6.10;2.42;;;6.60;99.90;;;;;;4252211;27;20466;-87
2022/03/27 02:05:34;;;;;;;6.72;2.67;;;7.70;99.90;;;;;;4228522;28;20101;-88
2022/03/27 02:07:42;;;;;;;4.88;2.88;;;7.50;99.90;;;;;;4231372;28;20473;-87
2022/03/27 02:09:42;;;;;;;5.22;2.33;;;7.30;99.90;;;;;;4235752;27;20077;-87
2022/03/27 02:11:44;;;;;;;4.28;2.40;;;7.60;99.90;;;;;;4225880;28;20047;-87
2022/03/27 02:13:45;;;;;;;3.47;2.17;;;6.40;99.90;;;;;;4247792;27;20048;-87
2022/03/27 02:15:46;;;;;;;9.27;2.33;;;7.50;99.90;;;;;;4238653;27;20542;-86
2022/03/27 02:17:47;;;;;;;8.45;2.47;;;6.30;99.90;;;;;;4240756;27;20075;-87
2022/03/27 02:19:48;;;;;;;8.02;2.42;;;6.30;99.90;;;;;;4236289;27;20043;-86
2022/03/27 02:21:49;;;;;;;8.90;2.63;;;6.30;99.90;;;;;;4248363;27;20134;-86
2022/03/27 02:23:49;;;;;;;7.60;2.42;;;6.30;99.90;;;;;;4247286;27;20046;-87
2022/03/27 02:25:51;;;;;;;8.55;2.47;;;7.10;99.90;;;;;;4248573;27;20043;-87
2022/03/27 02:27:52;;;;;;;20.88;4.75;;;6.20;99.90;;;;;;4224494;28;20048;-87
2022/03/27 02:29:53;;;;;;;25.48;3.25;;;7.40;99.90;;;;;;4246610;27;20518;-88
2022/03/27 02:31:54;;;;;;;17.08;2.25;;;6.90;99.90;;;;;;4264213;27;20036;-87
2022/03/27 02:33:55;;;;;;;36.03;3.22;;;7.40;99.90;;;;;;4253048;27;20031;-88
2022/03/27 02:35:56;;;;;;;61.70;3.72;;;7.20;99.90;;;;;;4254663;27;20038;-86
2022/03/27 02:37:57;;;;;;;32.15;2.97;;;6.30;99.90;;;;;;4255585;27;20051;-87
2022/03/27 02:39:58;;;;;;;67.07;3.53;;;6.80;99.90;;;;;;4231259;28;20044;-87
2022/03/27 02:42:00;;;;;;;32.08;2.83;;;5.90;99.90;;;;;;4218891;28;20557;-87
2022/03/27 02:44:05;;;;;;;59.80;3.17;;;5.80;99.90;;;;;;4239067;27;20058;-88
2022/03/27 02:46:06;;;;;;;55.85;3.10;;;5.80;99.90;;;;;;4247957;27;20138;-87
2022/03/27 02:48:08;;;;;;;45.75;2.92;;;6.20;99.90;;;;;;4235234;27;20035;-87
2022/03/27 02:50:09;;;;;;;22.83;2.45;;;5.70;99.90;;;;;;4220836;28;20051;-88
2022/03/27 02:52:10;;;;;;;29.27;2.80;;;5.60;99.90;;;;;;4229893;28;20050;-88
2022/03/27 02:54:13;;;;;;;64.60;3.13;;;6.10;99.90;;;;;;4232933;28;20048;-87
2022/03/27 02:56:14;;;;;;;55.17;3.00;;;6.20;99.90;;;;;;4248863;27;20043;-87
2022/03/27 02:58:15;;;;;;;32.10;2.03;;;4.70;99.90;;;;;;4233230;27;20039;-86
2022/03/27 03:00:16;;;;;;;55.75;2.90;;;5.50;99.90;;;;;;4247922;27;20050;-87
2022/03/27 03:02:17;;;;;;;12.68;1.80;;;5.40;99.90;;;;;;4241053;27;20032;-87
2022/03/27 03:04:18;;;;;;;23.23;2.00;;;6.30;99.90;;;;;;4237362;27;20062;-88
2022/03/27 03:06:20;;;;;;;53.03;2.40;;;5.40;99.90;;;;;;4247315;27;20522;-86
2022/03/27 03:08:21;;;;;;;34.28;2.60;;;5.50;99.90;;;;;;4247077;27;20437;-88
2022/03/27 03:10:22;;;;;;;36.75;2.33;;;5.50;99.90;;;;;;4234187;27;20027;-87
2022/03/27 03:12:26;;;;;;;8.65;1.83;;;5.50;99.90;;;;;;4229548;28;20048;-87
2022/03/27 03:14:27;;;;;;;53.17;3.17;;;5.50;99.90;;;;;;4237106;27;20050;-88
2022/03/27 03:16:29;;;;;;;61.47;2.80;;;5.50;99.90;;;;;;4235188;27;20122;-88
2022/03/27 03:18:34;;;;;;;65.55;3.20;;;5.50;99.90;;;;;;4231522;28;20139;-87
2022/03/27 03:20:37;;;;;;;30.30;2.35;;;5.50;99.90;;;;;;4237655;27;20048;-87
2022/03/27 03:22:40;;;;;;;38.45;3.03;;;5.30;99.90;;;;;;4234254;27;20023;-87
2022/03/27 03:24:41;;;;;;;62.42;3.05;;;5.30;99.90;;;;;;4220188;28;20055;-87
2022/03/27 03:26:42;;;;;;;59.28;3.45;;;5.30;99.90;;;;;;4240140;27;20092;-88
2022/03/27 03:28:42;;;;;;;64.55;3.15;;;6.10;99.90;;;;;;4235318;27;20137;-86
2022/03/27 03:30:43;;;;;;;44.35;2.88;;;6.50;99.90;;;;;;4234128;27;20380;-87
2022/03/27 03:32:44;;;;;;;15.45;1.60;;;6.00;99.90;;;;;;4231395;28;20082;-87
2022/03/27 03:34:46;;;;;;;36.92;2.75;;;5.10;99.90;;;;;;4237093;27;20132;-87
2022/03/27 03:36:47;;;;;;;87.35;3.97;;;5.20;99.90;;;;;;4234819;27;20042;-87
2022/03/27 03:38:48;;;;;;;68.13;3.22;;;5.40;99.90;;;;;;4232563;27;20046;-87
2022/03/27 03:40:50;;;;;;;17.95;1.80;;;5.10;99.90;;;;;;4229864;28;20044;-88
2022/03/27 03:42:51;;;;;;;19.55;1.80;;;5.20;99.90;;;;;;4231372;27;20491;-87
2022/03/27 03:44:53;;;;;;;20.67;1.67;;;5.40;99.90;;;;;;4223543;28;20059;-88
2022/03/27 03:46:54;;;;;;;18.23;2.05;;;5.10;99.90;;;;;;4236732;27;20046;-88
2022/03/27 03:48:55;;;;;;;19.48;1.50;;;5.10;99.90;;;;;;4237918;27;20086;-88
2022/03/27 03:50:56;;;;;;;4.18;1.45;;;6.30;99.90;;;;;;4218812;28;20403;-88
2022/03/27 03:52:56;;;;;;;4.45;1.70;;;6.10;99.90;;;;;;4233988;27;20051;-88
2022/03/27 03:54:58;;;;;;;12.05;2.67;;;5.90;99.90;;;;;;4214872;28;20405;-88
2022/03/27 03:56:59;;;;;;;7.90;1.88;;;6.10;99.90;;;;;;4217960;28;20043;-88
2022/03/27 03:59:00;;;;;;;6.30;1.55;;;5.10;99.90;;;;;;4248473;27;20422;-88
2022/03/27 04:01:03;;;;;;;10.25;1.20;;;6.00;99.90;;;;;;4237539;27;20082;-88
2022/03/27 04:03:04;;;;;;;3.05;1.27;;;6.30;99.90;;;;;;4236449;27;20035;-88
2022/03/27 04:05:06;;;;;;;8.65;1.25;;;5.30;99.90;;;;;;4231931;28;20040;-87
2022/03/27 04:07:08;;;;;;;3.80;1.42;;;5.00;99.90;;;;;;4234571;27;20047;-87
2022/03/27 04:09:10;;;;;;;8.75;1.20;;;5.10;99.90;;;;;;4232992;27;20104;-87
2022/03/27 04:11:17;;;;;;;3.92;1.15;;;6.10;99.90;;;;;;4236033;27;20031;-87
2022/03/27 04:13:19;;;;;;;1.00;0.88;;;5.00;99.90;;;;;;4217275;28;20476;-87
2022/03/27 04:15:21;;;;;;;6.63;1.85;;;5.00;99.90;;;;;;4233960;27;20491;-87
2022/03/27 04:17:22;;;;;;;2.92;0.88;;;5.10;99.90;;;;;;4244283;27;20043;-87
2022/03/27 04:19:24;;;;;;;2.35;1.00;;;5.00;99.90;;;;;;4233856;27;20058;-86
2022/03/27 04:21:24;;;;;;;2.03;0.85;;;6.30;99.90;;;;;;4237017;27;20051;-86
2022/03/27 04:23:25;;;;;;;2.35;0.90;;;5.40;99.90;;;;;;4241003;27;20058;-88
2022/03/27 04:25:26;;;;;;;2.15;1.25;;;6.10;99.90;;;;;;4232683;28;20039;-87
2022/03/27 04:27:27;;;;;;;10.55;1.10;;;4.90;99.90;;;;;;4231501;27;20052;-87
2022/03/27 04:29:28;;;;;;;5.35;1.75;;;6.10;99.90;;;;;;4238012;27;20118;-87
2022/03/27 04:31:29;;;;;;;6.38;1.67;;;5.50;99.90;;;;;;4225592;28;20048;-88
2022/03/27 04:33:30;;;;;;;6.53;2.15;;;5.90;99.90;;;;;;4244421;27;20434;-88
2022/03/27 04:35:30;;;;;;;1.80;0.88;;;4.80;99.90;;;;;;4221240;28;20100;-87
2022/03/27 04:37:31;;;;;;;3.72;0.95;;;6.00;99.90;;;;;;4234937;27;20438;-87
2022/03/27 04:39:32;;;;;;;10.65;1.40;;;6.10;99.90;;;;;;4215403;28;20048;-88
2022/03/27 04:41:34;;;;;;;10.43;1.33;;;6.20;99.90;;;;;;4235827;27;20479;-87
2022/03/27 04:43:34;;;;;;;9.43;1.65;;;5.70;99.90;;;;;;4236180;27;20725;-87
2022/03/27 04:45:35;;;;;;;13.95;1.30;;;4.70;99.90;;;;;;4244149;27;20121;-87
2022/03/27 04:47:38;;;;;;;5.72;1.45;;;5.80;99.90;;;;;;4244425;27;20422;-87
2022/03/27 04:49:39;;;;;;;9.38;2.50;;;;;;;;;;4233621;27;20049;-88
2022/03/27 04:51:41;;;;;;;8.77;1.55;;;4.70;99.90;;;;;;4245160;27;20071;-87
2022/03/27 04:53:43;;;;;;;14.70;1.95;;;4.70;99.90;;;;;;4231936;27;20051;-87
2022/03/27 04:55:44;;;;;;;5.32;1.73;;;4.80;99.90;;;;;;4245328;27;20079;-87
2022/03/27 04:57:45;;;;;;;7.10;1.65;;;5.40;99.90;;;;;;4247132;27;20042;-87
2022/03/27 04:59:46;;;;;;;15.05;1.88;;;5.40;99.90;;;;;;4239543;27;20043;-86
2022/03/27 05:01:48;;;;;;;3.63;1.52;;;4.90;99.90;;;;;;4236293;27;20035;-87
2022/03/27 05:03:49;;;;;;;11.13;2.45;;;5.90;99.90;;;;;;4245692;27;20031;-87
2022/03/27 05:05:50;;;;;;;12.27;1.80;;;5.50;99.90;;;;;;4235995;27;20472;-87
2022/03/27 05:07:51;;;;;;;14.40;2.92;;;5.10;99.90;;;;;;4242884;27;20040;-87
2022/03/27 05:09:53;;;;;;;5.97;1.80;;;5.20;99.90;;;;;;4236006;27;20035;-87
2022/03/27 05:11:55;;;;;;;4.00;1.50;;;5.00;99.90;;;;;;4236335;27;20142;-87
2022/03/27 05:13:56;;;;;;;6.72;1.55;;;5.30;99.90;;;;;;4232281;27;20051;-87
2022/03/27 05:15:57;;;;;;;6.57;1.95;;;4.70;99.90;;;;;;4234400;27;20046;-88
2022/03/27 05:17:58;;;;;;;3.90;1.73;;;5.90;99.90;;;;;;4220403;28;20060;-87
2022/03/27 05:20:02;;;;;;;9.85;2.00;;;6.10;99.90;;;;;;4237303;27;20070;-87
2022/03/27 05:22:04;;;;;;;4.50;1.38;;;4.80;99.90;;;;;;4246531;27;20058;-88
2022/03/27 05:24:08;;;;;;;5.03;1.75;;;4.90;99.90;;;;;;4235354;27;20092;-86
2022/03/27 05:26:09;;;;;;;8.90;1.83;;;4.90;99.90;;;;;;4228065;28;20035;-87
2022/03/27 05:28:10;;;;;;;10.63;2.20;;;6.10;99.90;;;;;;4241679;27;20050;-87
2022/03/27 05:30:11;;;;;;;10.75;2.35;;;5.00;99.90;;;;;;4234597;27;20040;-87
2022/03/27 05:32:13;;;;;;;6.05;1.40;;;5.00;99.90;;;;;;4243912;27;20097;-87
2022/03/27 05:34:14;;;;;;;9.13;1.77;;;6.20;99.90;;;;;;4242551;27;20085;-88
2022/03/27 05:36:15;;;;;;;7.20;2.08;;;5.90;99.90;;;;;;4245995;27;20118;-87
2022/03/27 05:38:16;;;;;;;8.50;1.50;;;6.00;99.90;;;;;;4235326;28;20395;-87
2022/03/27 05:40:19;;;;;;;5.80;2.20;;;5.50;99.90;;;;;;4242892;27;20050;-88
2022/03/27 05:42:21;;;;;;;14.93;2.53;;;5.20;99.90;;;;;;4234655;27;20400;-88
2022/03/27 05:44:22;;;;;;;10.75;2.38;;;6.30;99.90;;;;;;4244747;27;20043;-87
2022/03/27 05:46:23;;;;;;;8.02;2.13;;;6.20;99.90;;;;;;4244407;27;20047;-86
2022/03/27 05:48:25;;;;;;;6.18;2.20;;;5.30;99.90;;;;;;4231664;28;20051;-86
2022/03/27 05:50:26;;;;;;;13.15;2.15;;;6.40;99.90;;;;;;4233717;28;20135;-86
2022/03/27 05:52:27;;;;;;;12.18;2.10;;;6.20;99.90;;;;;;4232204;28;20039;-87
2022/03/27 05:54:27;;;;;;;10.80;2.10;;;5.40;99.90;;;;;;4236864;28;20043;-87
2022/03/27 05:56:28;;;;;;;10.60;1.77;;;6.00;99.90;;;;;;4243102;28;20040;-87
2022/03/27 05:58:29;;;;;;;10.10;1.50;;;5.40;99.90;;;;;;4257427;27;20042;-88
2022/03/27 06:00:30;;;;;;;10.02;2.40;;;5.40;99.90;;;;;;4250692;28;20039;-87
2022/03/27 06:02:32;;;;;;;7.55;1.33;;;5.60;99.90;;;;;;4250766;28;20045;-87
2022/03/27 06:04:34;;;;;;;7.93;1.60;;;6.70;99.90;;;;;;4233337;28;20065;-87
2022/03/27 06:06:34;;;;;;;4.57;1.35;;;6.20;99.90;;;;;;4251977;28;20047;-87
2022/03/27 06:08:35;;;;;;;9.45;1.70;;;6.80;99.90;;;;;;4249798;28;20099;-86
2022/03/27 06:10:38;;;;;;;10.10;2.08;;;5.90;99.90;;;;;;4237489;28;20043;-87
2022/03/27 06:12:39;;;;;;;12.07;1.80;;;6.20;99.90;;;;;;4261074;27;20127;-87
2022/03/27 06:14:40;;;;;;;11.30;2.15;;;6.40;99.90;;;;;;4232948;28;20108;-86
2022/03/27 06:16:41;;;;;;;16.88;3.60;;;6.70;99.90;;;;;;4251286;28;20050;-86
2022/03/27 06:18:43;;;;;;;7.63;2.20;;;6.90;99.90;;;;;;4233643;28;20036;-87
2022/03/27 06:20:44;;;;;;;20.40;4.57;;;7.00;99.90;;;;;;4255173;28;20040;-87
2022/03/27 06:22:45;;;;;;;10.45;2.63;;;5.70;99.90;;;;;;4252944;28;20123;-87
2022/03/27 06:24:46;;;;;;;10.65;2.70;;;6.50;99.90;;;;;;4251619;28;20277;-87
2022/03/27 06:26:46;;;;;;;14.93;2.40;;;5.80;99.90;;;;;;4248629;28;20065;-88
2022/03/27 06:28:47;;;;;;;13.02;2.25;;;5.80;99.90;;;;;;4234055;28;20043;-87
2022/03/27 06:30:48;;;;;;;15.18;3.08;;;5.90;99.90;;;;;;4255901;28;20123;-87
2022/03/27 06:32:50;;;;;;;17.10;2.95;;;6.00;99.90;;;;;;4243611;28;20118;-87
2022/03/27 06:34:51;;;;;;;16.98;2.65;;;6.90;99.90;;;;;;4241274;28;20043;-87
2022/03/27 06:36:52;;;;;;;12.75;3.45;;;6.00;99.90;;;;;;4258148;27;20058;-88
2022/03/27 06:38:54;;;;;;;23.85;3.08;;;6.30;99.90;;;;;;4252555;28;20032;-88
2022/03/27 06:40:55;;;;;;;10.15;3.47;;;7.30;99.90;;;;;;4254460;28;20042;-88
2022/03/27 06:42:56;;;;;;;33.15;5.00;;;6.20;99.90;;;;;;4250710;27;20035;-87
2022/03/27 06:44:57;;;;;;;21.05;3.85;;;6.30;99.90;;;;;;4221936;28;20098;-88
2022/03/27 06:46:58;;;;;;;20.75;3.60;;;6.40;99.90;;;;;;4236406;27;20087;-88
2022/03/27 06:48:59;;;;;;;24.90;4.22;;;6.40;99.90;;;;;;4227869;28;20126;-88
2022/03/27 06:51:00;;;;;;;32.60;4.10;;;6.50;99.90;;;;;;4240434;27;20496;-87
2022/03/27 06:53:01;;;;;;;30.88;4.85;;;;;;;;;;4244311;27;20043;-87
2022/03/27 06:55:05;;;;;;;27.45;5.50;;;6.70;99.90;;;;;;4223753;28;20079;-87
2022/03/27 06:57:05;;;;;;;32.00;4.82;;;6.30;99.90;;;;;;4218633;28;20051;-86
2022/03/27 06:59:09;;;;;;;25.65;4.50;;;6.80;99.90;;;;;;4235436;27;20047;-86
2022/03/27 07:03:30;;;;;;;;;;;7.60;99.90;;;;;;4245613;27;20523;-87
2022/03/27 07:05:32;;;;;;;33.40;4.47;;;;;;;;;;4246161;27;19919;-88
2022/03/27 07:07:33;;;;;;;27.30;5.68;;;7.10;99.90;;;;;;4254524;27;20051;-88
2022/03/27 07:09:34;;;;;;;32.35;6.38;;;7.60;99.90;;;;;;4248637;27;20399;-88
2022/03/27 07:11:36;;;;;;;34.85;5.95;;;7.20;99.90;;;;;;4221345;28;20079;-88
2022/03/27 07:13:37;;;;;;;32.53;5.40;;;8.30;99.90;;;;;;4224800;28;20269;-87
2022/03/27 07:15:39;;;;;;;39.38;7.38;;;8.10;99.90;;;;;;4239466;27;20540;-88
2022/03/27 07:17:46;;;;;;;26.58;6.57;;;8.00;99.90;;;;;;4245941;27;20039;-88
2022/03/27 07:19:48;;;;;;;34.47;5.65;;;7.60;99.90;;;;;;4239048;27;20050;-89
2022/03/27 07:21:48;;;;;;;33.78;5.30;;;8.60;99.90;;;;;;4229237;28;20052;-89
2022/03/27 07:23:49;;;;;;;37.25;7.28;;;7.70;99.90;;;;;;4244899;27;20405;-90
2022/03/27 07:25:53;;;;;;;32.53;6.35;;;7.90;99.90;;;;;;4237561;27;20467;-89
2022/03/27 07:27:56;;;;;;;35.72;6.10;;;8.00;99.90;;;;;;4237411;27;20035;-89
2022/03/27 07:29:57;;;;;;;27.35;4.38;;;8.10;99.90;;;;;;4222718;28;20039;-89
2022/03/27 07:31:58;;;;;;;35.60;4.70;;;8.80;99.90;;;;;;4239245;27;20078;-90
2022/03/27 07:33:59;;;;;;;26.73;4.72;;;8.40;99.90;;;;;;4219743;28;20512;-90
2022/03/27 07:36:01;;;;;;;26.23;4.90;;;8.60;99.90;;;;;;4224626;28;20173;-90
2022/03/27 07:38:03;;;;;;;34.53;5.30;;;8.70;99.90;;;;;;4242788;27;20118;-90
2022/03/27 07:40:08;;;;;;;26.85;5.30;;;8.80;99.90;;;;;;4240779;27;20531;-89
2022/03/27 07:42:08;;;;;;;27.88;5.95;;;8.90;99.90;;;;;;4236636;27;20047;-90
2022/03/27 07:44:09;;;;;;;34.47;5.75;;;9.30;99.90;;;;;;4236924;27;20048;-90
2022/03/27 07:46:10;;;;;;;23.13;4.22;;;9.10;99.90;;;;;;4243075;27;20054;-89
2022/03/27 07:48:11;;;;;;;29.42;5.60;;;9.10;99.90;;;;;;4240998;27;20423;-89
2022/03/27 07:50:12;;;;;;;33.47;5.85;;;10.20;99.90;;;;;;4249116;27;20039;-90
2022/03/27 07:52:13;;;;;;;32.00;5.30;;;10.00;99.90;;;;;;4247541;27;20076;-89
2022/03/27 07:54:15;;;;;;;27.52;5.38;;;9.40;99.90;;;;;;4251072;27;20043;-89
2022/03/27 07:56:16;;;;;;;25.08;4.97;;;10.30;99.90;;;;;;4237343;28;20108;-89
2022/03/27 07:58:17;;;;;;;31.65;4.97;;;;;;;;;;4262218;27;20027;-90
2022/03/27 08:00:18;;;;;;;37.42;6.65;;;;;;;;;;4257231;27;20035;-90
2022/03/27 08:02:21;;;;;;;37.35;5.00;;;;;;;;;;4260249;27;20027;-90
2022/03/27 08:04:22;;;;;;;33.80;6.45;;;;;;;;;;4261261;27;20078;-90
2022/03/27 08:06:23;;;;;;;34.17;5.55;;;;;;;;;;4235724;28;20108;-90
2022/03/27 08:08:26;;;;;;;31.50;5.97;;;;;;;;;;4259138;27;20037;-90
2022/03/27 08:10:27;;;;;;;27.55;5.07;;;;;;;;;;4264025;27;20103;-90
2022/03/27 08:12:29;;;;;;;24.88;3.97;;;;;;;;;;4263412;27;20051;-89
2022/03/27 08:14:31;;;;;;;41.95;7.55;;;;;;;;;;4237302;28;20126;-87
2022/03/27 08:16:32;;;;;;;30.80;6.20;;;;;;;;;;4253475;27;20098;-87
2022/03/27 08:18:34;;;;;;;29.02;6.63;;;;;;;;;;4240433;28;20034;-88
2022/03/27 08:20:35;;;;;;;33.63;5.30;;;;;;;;;;4246432;27;20043;-88
2022/03/27 08:22:36;;;;;;;32.50;4.53;;;;;;;;;;4275328;27;20071;-88
2022/03/27 08:24:38;;;;;;;26.58;5.47;;;;;;;;;;4281331;27;20031;-88
2022/03/27 08:26:59;;;;;;;37.28;5.50;;;;;;;;;;4276284;27;20069;-88
2022/03/27 08:29:03;;;;;;;25.60;4.85;;;;;;;;;;4279785;27;20077;-88
2022/03/27 08:31:04;;;;;;;21.65;3.90;;;;;;;;;;4272706;27;20025;-87
2022/03/27 08:33:05;;;;;;;29.30;4.63;;;;;;;;;;4252383;27;20062;-88
2022/03/27 08:35:06;;;;;;;22.27;5.57;;;;;;;;;;4255669;27;20043;-88
2022/03/27 08:37:08;;;;;;;28.95;5.38;;;;;;;;;;4254257;27;20055;-88
2022/03/27 08:39:10;;;;;;;21.38;4.82;;;;;;;;;;4262134;27;20043;-88
2022/03/27 08:41:11;;;;;;;27.10;6.03;;;;;;;;;;4246518;27;20047;-88
2022/03/27 08:43:13;;;;;;;33.75;5.28;;;;;;;;;;4257815;27;20070;-89
2022/03/27 08:45:14;;;;;;;29.45;5.05;;;;;;;;;;4228391;28;20042;-88
2022/03/27 08:47:18;;;;;;;26.23;4.50;;;;;;;;;;4262803;27;20043;-88
2022/03/27 08:49:37;;;;;;;21.52;4.18;;;;;;;;;;4236641;27;20040;-88
2022/03/27 08:51:46;;;;;;;22.50;4.25;;;;;;;;;;4233299;27;20043;-88
2022/03/27 08:53:48;;;;;;;29.42;4.15;;;;;;;;;;4238240;27;20065;-87
2022/03/27 08:55:56;;;;;;;26.67;3.58;;;;;;;;;;4248420;27;20044;-89
2022/03/27 08:57:59;;;;;;;29.83;4.78;;;;;;;;;;4244207;27;20115;-89
2022/03/27 09:00:00;;;;;;;21.25;3.90;;;;;;;;;;4249773;27;20070;-89
2022/03/27 09:02:02;;;;;;;27.27;4.30;;;;;;;;;;4243955;27;20120;-89
2022/03/27 09:04:04;;;;;;;23.27;4.25;;;;;;;;;;4256328;27;20042;-88
2022/03/27 09:06:07;;;;;;;31.50;5.18;;;;;;;;;;4252008;27;20125;-88
2022/03/27 09:08:12;;;;;;;21.38;3.55;;;;;;;;;;4264326;27;20046;-88
2022/03/27 09:10:13;;;;;;;23.27;3.45;;;;;;;;;;4256363;27;20095;-88
2022/03/27 09:12:16;;;;;;;23.85;3.78;;;;;;;;;;4268807;27;20081;-88
2022/03/27 09:14:17;;;;;;;24.85;5.43;;;;;;;;;;4259702;27;20039;-88
2022/03/27 09:16:18;;;;;;;20.75;4.78;;;;;;;;;;4250749;27;20046;-88
2022/03/27 09:18:19;;;;;;;23.77;4.05;;;;;;;;;;4263609;27;20063;-87
2022/03/27 09:20:37;;;;;;;22.83;3.85;;;;;;;;;;4249803;27;20043;-85
2022/03/27 09:22:38;;;;;;;15.68;4.80;;;;;;;;;;4247184;27;20053;-88
2022/03/27 09:24:40;;;;;;;16.30;3.83;;;;;;;;;;4242599;27;20101;-87
2022/03/27 09:26:57;;;;;;;23.00;5.30;;;;;;;;;;4260757;27;20121;-88
2022/03/27 09:29:11;;;;;;;16.52;4.03;;;;;;;;;;4242527;27;20043;-87
2022/03/27 09:31:18;;;;;;;29.23;4.90;;;;;;;;;;4249063;27;20490;-87
2022/03/27 09:33:32;;;;;;;22.48;3.72;;;;;;;;;;4247391;27;20035;-88
2022/03/27 09:35:35;;;;;;;21.67;3.95;;;;;;;;;;4248204;27;20047;-88
2022/03/27 09:37:45;;;;;;;24.40;4.95;;;;;;;;;;4229545;28;20089;-87
2022/03/27 09:39:56;;;;;;;18.13;3.78;;;;;;;;;;4245950;27;20039;-90
2022/03/27 09:42:03;;;;;;;24.63;3.33;;;;;;;;;;4246806;27;20047;-88
2022/03/27 09:44:07;;;;;;;22.67;4.82;;;;;;;;;;4247515;27;20460;-89
2022/03/27 09:46:10;;;;;;;19.67;3.67;;;;;;;;;;4247311;27;20543;-89
2022/03/27 09:48:11;;;;;;;18.48;4.40;;;;;;;;;;4214038;28;20051;-88
2022/03/27 09:50:36;;;;;;;14.88;3.25;;;;;;;;;;4247678;27;20042;-89
2022/03/27 09:52:39;;;;;;;24.05;4.28;;;;;;;;;;4239631;27;20055;-89
2022/03/27 09:54:45;;;;;;;19.13;4.40;;;;;;;;;;4229608;28;20055;-88
2022/03/27 09:56:46;;;;;;;23.33;4.35;;;;;;;;;;4230160;28;20436;-88
2022/03/27 09:58:48;;;;;;;26.08;4.95;;;;;;;;;;4251941;27;20049;-88
2022/03/27 10:01:07;;;;;;;20.30;3.45;;;;;;;;;;4247338;28;20122;-88
2022/03/27 10:03:11;;;;;;;20.15;4.68;;;;;;;;;;4246970;28;20379;-88
2022/03/27 10:05:13;;;;;;;20.33;3.92;;;;;;;;;;4246430;28;20515;-89
2022/03/27 10:07:18;;;;;;;15.15;2.88;;;;;;;;;;4247220;28;20043;-89
2022/03/27 10:09:19;;;;;;;14.73;3.33;;;;;;;;;;4230170;28;20048;-88
2022/03/27 10:11:23;;;;;;;25.63;4.53;;;;;;;;;;4246829;28;20084;-89
2022/03/27 10:13:29;;;;;;;19.88;3.88;;;;;;;;;;4245989;28;20491;-89
2022/03/27 10:15:31;;;;;;;20.00;3.15;;;;;;;;;;4246678;28;20043;-89
2022/03/27 10:17:33;;;;;;;18.02;3.35;;;;;;;;;;4213883;28;20090;-88
2022/03/27 10:19:38;;;;;;;20.50;3.90;;;;;;;;;;4266092;27;20387;-88
2022/03/27 10:21:42;;;;;;;21.48;4.00;;;;;;;;;;4233069;28;20055;-88
2022/03/27 10:23:44;;;;;;;24.48;4.60;;;;;;;;;;4256869;27;20441;-88
2022/03/27 10:25:50;;;;;;;25.08;4.88;;;;;;;;;;4215540;28;20048;-88
2022/03/27 10:27:52;;;;;;;21.98;4.25;;;;;;;;;;4232791;28;20043;-88
2022/03/27 10:29:53;;;;;;;21.50;4.13;;;;;;;;;;4232917;28;20068;-89
2022/03/27 10:31:55;;;;;;;20.20;3.15;;;;;;;;;;4234267;28;20082;-89
2022/03/27 10:33:58;;;;;;;20.88;4.47;;;;;;;;;;4217351;28;20047;-90
2022/03/27 10:36:02;;;;;;;22.90;5.22;;;;;;;;;;4215035;28;20098;-88
2022/03/27 10:38:19;;;;;;;21.63;3.83;;;;;;;;;;4235150;27;20436;-88
2022/03/27 10:40:24;;;;;;;15.77;4.00;;;;;;;;;;4267122;27;20078;-87
2022/03/27 10:42:59;;;;;;;18.42;3.88;;;;;;;;;;4248846;27;20059;-87
2022/03/27 10:45:09;;;;;;;19.80;3.83;;;;;;;;;;4201089;27;20039;-88
2022/03/27 10:47:18;;;;;;;21.00;3.88;;;;;;;;;;4267175;27;20043;-87
2022/03/27 10:49:19;;;;;;;19.63;3.45;;;;;;;;;;4266078;27;20042;-88
2022/03/27 10:51:37;;;;;;;17.63;3.63;;;;;;;;;;4268027;27;20410;-87
2022/03/27 10:53:38;;;;;;;17.52;3.75;;;;;;;;;;4234912;28;20050;-88
2022/03/27 10:55:42;;;;;;;19.85;3.33;;;;;;;;;;4249172;27;20067;-87
2022/03/27 10:57:45;;;;;;;15.80;3.35;;;;;;;;;;4267221;27;20153;-87
2022/03/27 10:59:47;;;;;;;16.63;3.15;;;;;;;;;;4248473;27;20042;-87
2022/03/27 11:01:56;;;;;;;18.42;3.85;;;;;;;;;;4249059;27;20079;-88
2022/03/27 11:04:05;;;;;;;15.88;3.42;;;;;;;;;;4267506;27;20558;-88
2022/03/27 11:06:20;;;;;;;15.23;3.50;;;;;;;;;;4268106;27;20047;-87